sensor_id;sensor_type;location;lat;lon;timestamp;pressure;altitude;pressure_sealevel;temperature;humidity
26438;BME280;14133;48.430;9.888;2022-07-03T00:00:26;95397.53;;;18.50;62.89
26438;BME280;14133;48.430;9.888;2022-07-03T00:10:07;95384.69;;;18.40;62.84
26438;BME280;14133;48.430;9.888;2022-07-03T00:19:48;95393.25;;;18.45;62.93
26438;BME280;14133;48.430;9.888;2022-07-03T00:29:36;95365.75;;;18.32;62.68
26438;BME280;14133;48.430;9.888;2022-07-03T00:39:17;95378.56;;;18.43;62.33
26438;BME280;14133;48.430;9.888;2022-07-03T00:48:58;95371.19;;;18.40;62.32
26438;BME280;14133;48.430;9.888;2022-07-03T00:58:40;95380.06;;;18.40;62.01
26438;BME280;14133;48.430;9.888;2022-07-03T01:18:28;95383.88;;;18.35;61.79
26438;BME280;14133;48.430;9.888;2022-07-03T01:28:20;95373.03;;;18.28;61.97
26438;BME280;14133;48.430;9.888;2022-07-03T01:38:07;95369.94;;;18.30;62.02
26438;BME280;14133;48.430;9.888;2022-07-03T01:47:47;95362.19;;;18.25;61.82
26438;BME280;14133;48.430;9.888;2022-07-03T01:57:40;95347.00;;;18.13;61.62
26438;BME280;14133;48.430;9.888;2022-07-03T02:07:42;95351.75;;;18.23;61.44
26438;BME280;14133;48.430;9.888;2022-07-03T02:17:29;95360.13;;;18.14;61.54
26438;BME280;14133;48.430;9.888;2022-07-03T02:27:20;95355.50;;;18.11;61.55
26438;BME280;14133;48.430;9.888;2022-07-03T02:37:17;95371.31;;;18.13;61.27
26438;BME280;14133;48.430;9.888;2022-07-03T03:06:51;95367.34;;;18.03;61.05
26438;BME280;14133;48.430;9.888;2022-07-03T03:16:36;95376.97;;;18.04;61.09
26438;BME280;14133;48.430;9.888;2022-07-03T03:26:24;95374.25;;;18.00;60.87
26438;BME280;14133;48.430;9.888;2022-07-03T03:36:07;95376.94;;;18.00;60.70
26438;BME280;14133;48.430;9.888;2022-07-03T03:45:48;95380.31;;;17.93;60.96
26438;BME280;14133;48.430;9.888;2022-07-03T03:55:28;95388.03;;;17.95;60.89
26438;BME280;14133;48.430;9.888;2022-07-03T04:05:09;95361.94;;;17.72;61.03
26438;BME280;14133;48.430;9.888;2022-07-03T04:14:49;95374.69;;;17.75;61.16
26438;BME280;14133;48.430;9.888;2022-07-03T04:24:30;95392.94;;;17.86;60.94
26438;BME280;14133;48.430;9.888;2022-07-03T04:34:10;95386.38;;;17.83;61.23
26438;BME280;14133;48.430;9.888;2022-07-03T04:43:50;95383.25;;;17.81;61.84
26438;BME280;14133;48.430;9.888;2022-07-03T04:53:31;95401.72;;;17.79;63.15
26438;BME280;14133;48.430;9.888;2022-07-03T05:03:12;95405.56;;;17.78;63.19
26438;BME280;14133;48.430;9.888;2022-07-03T05:12:53;95414.09;;;17.84;64.35
26438;BME280;14133;48.430;9.888;2022-07-03T05:22:33;95420.13;;;17.73;64.63
26438;BME280;14133;48.430;9.888;2022-07-03T05:32:14;95417.91;;;17.79;65.33
26438;BME280;14133;48.430;9.888;2022-07-03T05:41:54;95421.84;;;17.85;65.13
26438;BME280;14133;48.430;9.888;2022-07-03T05:51:34;95408.34;;;17.85;64.83
26438;BME280;14133;48.430;9.888;2022-07-03T06:01:15;95417.22;;;17.86;65.50
26438;BME280;14133;48.430;9.888;2022-07-03T06:10:55;95416.50;;;17.89;65.70
26438;BME280;14133;48.430;9.888;2022-07-03T06:20:36;95413.84;;;17.92;65.27
26438;BME280;14133;48.430;9.888;2022-07-03T06:30:16;95420.50;;;17.99;67.39
26438;BME280;14133;48.430;9.888;2022-07-03T06:39:56;95412.03;;;18.00;68.17
26438;BME280;14133;48.430;9.888;2022-07-03T06:49:37;95421.34;;;18.06;72.35
26438;BME280;14133;48.430;9.888;2022-07-03T06:59:17;95428.44;;;18.18;73.22
26438;BME280;14133;48.430;9.888;2022-07-03T07:08:58;95412.63;;;18.17;74.72
26438;BME280;14133;48.430;9.888;2022-07-03T07:18:42;95430.63;;;18.43;73.30
26438;BME280;14133;48.430;9.888;2022-07-03T07:28:23;95435.44;;;18.57;74.18
26438;BME280;14133;48.430;9.888;2022-07-03T07:38:03;95420.13;;;18.72;73.38
26438;BME280;14133;48.430;9.888;2022-07-03T07:47:43;95420.25;;;18.83;70.77
26438;BME280;14133;48.430;9.888;2022-07-03T07:57:24;95420.47;;;19.08;71.95
26438;BME280;14133;48.430;9.888;2022-07-03T08:07:04;95390.31;;;19.03;71.80
26438;BME280;14133;48.430;9.888;2022-07-03T08:16:45;95402.47;;;19.27;68.09
26438;BME280;14133;48.430;9.888;2022-07-03T08:26:26;95409.47;;;19.39;67.26
26438;BME280;14133;48.430;9.888;2022-07-03T08:36:07;95393.31;;;19.46;66.82
26438;BME280;14133;48.430;9.888;2022-07-03T08:45:47;95400.00;;;19.67;65.68
26438;BME280;14133;48.430;9.888;2022-07-03T08:55:28;95412.03;;;19.76;66.05
26438;BME280;14133;48.430;9.888;2022-07-03T09:05:12;95405.22;;;20.01;65.14
26438;BME280;14133;48.430;9.888;2022-07-03T09:14:53;95401.72;;;19.97;64.69
26438;BME280;14133;48.430;9.888;2022-07-03T09:24:33;95400.22;;;20.03;63.98
26438;BME280;14133;48.430;9.888;2022-07-03T09:34:13;95392.84;;;20.00;62.17
26438;BME280;14133;48.430;9.888;2022-07-03T09:43:54;95393.66;;;20.11;61.80
26438;BME280;14133;48.430;9.888;2022-07-03T10:03:34;95387.25;;;20.85;53.18
26438;BME280;14133;48.430;9.888;2022-07-03T10:13:15;95375.94;;;20.46;60.65
26438;BME280;14133;48.430;9.888;2022-07-03T10:22:56;95375.56;;;20.41;60.67
26438;BME280;14133;48.430;9.888;2022-07-03T10:32:37;95381.09;;;21.09;54.20
26438;BME280;14133;48.430;9.888;2022-07-03T10:42:34;95364.41;;;21.11;54.60
26438;BME280;14133;48.430;9.888;2022-07-03T10:52:34;95373.34;;;20.86;57.35
26438;BME280;14133;48.430;9.888;2022-07-03T11:12:13;95356.25;;;21.29;53.11
26438;BME280;14133;48.430;9.888;2022-07-03T11:22:01;95343.50;;;21.19;54.65
26438;BME280;14133;48.430;9.888;2022-07-03T11:31:47;95339.97;;;21.36;53.90
26438;BME280;14133;48.430;9.888;2022-07-03T11:51:15;95327.94;;;21.34;56.00
26438;BME280;14133;48.430;9.888;2022-07-03T12:00:56;95330.16;;;21.86;54.86
26438;BME280;14133;48.430;9.888;2022-07-03T12:10:40;95316.50;;;21.97;54.58
26438;BME280;14133;48.430;9.888;2022-07-03T12:20:25;95309.88;;;22.09;55.08
26438;BME280;14133;48.430;9.888;2022-07-03T12:30:10;95310.44;;;21.74;56.12
26438;BME280;14133;48.430;9.888;2022-07-03T12:39:58;95303.13;;;22.31;55.13
26438;BME280;14133;48.430;9.888;2022-07-03T12:49:39;95285.75;;;22.18;53.60
26438;BME280;14133;48.430;9.888;2022-07-03T12:59:27;95283.16;;;22.60;50.94
26438;BME280;14133;48.430;9.888;2022-07-03T13:09:08;95281.47;;;22.20;54.50
26438;BME280;14133;48.430;9.888;2022-07-03T13:19:01;95270.63;;;22.17;55.72
26438;BME280;14133;48.430;9.888;2022-07-03T13:28:44;95266.34;;;22.76;51.99
26438;BME280;14133;48.430;9.888;2022-07-03T13:38:24;95266.88;;;22.60;52.72
26438;BME280;14133;48.430;9.888;2022-07-03T13:48:05;95260.16;;;23.10;47.68
26438;BME280;14133;48.430;9.888;2022-07-03T13:57:45;95257.44;;;23.14;50.14
26438;BME280;14133;48.430;9.888;2022-07-03T14:07:26;95244.50;;;22.83;50.79
26438;BME280;14133;48.430;9.888;2022-07-03T14:17:06;95221.75;;;22.66;52.29
26438;BME280;14133;48.430;9.888;2022-07-03T14:26:47;95223.78;;;23.00;51.04
26438;BME280;14133;48.430;9.888;2022-07-03T14:36:46;95211.91;;;23.21;48.29
26438;BME280;14133;48.430;9.888;2022-07-03T14:46:26;95233.66;;;23.18;48.83
26438;BME280;14133;48.430;9.888;2022-07-03T14:56:12;95226.13;;;22.98;51.51
26438;BME280;14133;48.430;9.888;2022-07-03T15:05:58;95219.91;;;22.98;50.93
26438;BME280;14133;48.430;9.888;2022-07-03T15:15:39;95213.91;;;23.14;50.02
26438;BME280;14133;48.430;9.888;2022-07-03T15:25:21;95219.75;;;23.47;48.35
26438;BME280;14133;48.430;9.888;2022-07-03T15:35:04;95201.19;;;23.03;50.13
26438;BME280;14133;48.430;9.888;2022-07-03T15:55:05;95188.88;;;23.30;49.28
26438;BME280;14133;48.430;9.888;2022-07-03T16:04:57;95192.34;;;23.30;49.23
26438;BME280;14133;48.430;9.888;2022-07-03T16:14:40;95184.38;;;23.12;51.33
26438;BME280;14133;48.430;9.888;2022-07-03T16:24:23;95178.41;;;23.28;50.70
26438;BME280;14133;48.430;9.888;2022-07-03T16:34:14;95173.41;;;23.54;50.11
26438;BME280;14133;48.430;9.888;2022-07-03T16:44:00;95148.63;;;23.14;51.01
26438;BME280;14133;48.430;9.888;2022-07-03T16:53:43;95164.69;;;23.35;50.14
26438;BME280;14133;48.430;9.888;2022-07-03T17:03:23;95156.09;;;23.06;52.36
26438;BME280;14133;48.430;9.888;2022-07-03T17:13:04;95155.00;;;23.00;53.06
26438;BME280;14133;48.430;9.888;2022-07-03T17:22:47;95136.25;;;22.74;53.69
26438;BME280;14133;48.430;9.888;2022-07-03T17:32:29;95137.44;;;22.73;54.28
26438;BME280;14133;48.430;9.888;2022-07-03T17:42:14;95133.56;;;22.71;55.14
26438;BME280;14133;48.430;9.888;2022-07-03T17:51:55;95137.91;;;22.64;55.36
26438;BME280;14133;48.430;9.888;2022-07-03T18:01:35;95128.31;;;22.53;55.88
26438;BME280;14133;48.430;9.888;2022-07-03T18:11:19;95107.47;;;22.42;56.04
26438;BME280;14133;48.430;9.888;2022-07-03T18:21:09;95129.50;;;22.52;56.63
26438;BME280;14133;48.430;9.888;2022-07-03T18:30:50;95134.19;;;22.47;56.93
26438;BME280;14133;48.430;9.888;2022-07-03T18:40:32;95138.13;;;22.43;57.27
26438;BME280;14133;48.430;9.888;2022-07-03T18:50:15;95148.22;;;22.42;57.77
26438;BME280;14133;48.430;9.888;2022-07-03T18:59:59;95146.25;;;22.39;58.15
26438;BME280;14133;48.430;9.888;2022-07-03T19:09:55;95140.47;;;22.37;59.25
26438;BME280;14133;48.430;9.888;2022-07-03T19:19:39;95152.53;;;22.36;60.84
26438;BME280;14133;48.430;9.888;2022-07-03T19:29:20;95145.94;;;22.33;60.19
26438;BME280;14133;48.430;9.888;2022-07-03T19:39:00;95150.59;;;22.33;60.15
26438;BME280;14133;48.430;9.888;2022-07-03T19:48:42;95145.63;;;22.24;60.33
26438;BME280;14133;48.430;9.888;2022-07-03T19:58:23;95127.16;;;22.04;59.64
26438;BME280;14133;48.430;9.888;2022-07-03T20:08:03;95138.38;;;22.10;60.19
26438;BME280;14133;48.430;9.888;2022-07-03T20:17:44;95171.75;;;22.11;60.58
26438;BME280;14133;48.430;9.888;2022-07-03T20:27:25;95181.88;;;22.03;59.89
26438;BME280;14133;48.430;9.888;2022-07-03T20:37:06;95202.88;;;21.95;60.91
26438;BME280;14133;48.430;9.888;2022-07-03T20:46:47;95220.75;;;21.93;61.23
26438;BME280;14133;48.430;9.888;2022-07-03T20:56:28;95236.72;;;21.83;61.98
26438;BME280;14133;48.430;9.888;2022-07-03T21:06:08;95195.72;;;21.56;62.18
26438;BME280;14133;48.430;9.888;2022-07-03T21:16:01;95210.84;;;21.57;62.21
26438;BME280;14133;48.430;9.888;2022-07-03T21:25:41;95224.06;;;21.48;62.14
26438;BME280;14133;48.430;9.888;2022-07-03T21:35:21;95232.59;;;21.42;61.82
26438;BME280;14133;48.430;9.888;2022-07-03T21:45:02;95222.97;;;21.27;62.34
26438;BME280;14133;48.430;9.888;2022-07-03T21:54:42;95252.03;;;21.19;62.35
26438;BME280;14133;48.430;9.888;2022-07-03T22:04:24;95244.72;;;21.05;61.96
26438;BME280;14133;48.430;9.888;2022-07-03T22:14:04;95254.00;;;21.08;61.49
26438;BME280;14133;48.430;9.888;2022-07-03T22:23:45;95257.13;;;20.99;61.04
26438;BME280;14133;48.430;9.888;2022-07-03T22:33:25;95227.75;;;20.90;61.55
26438;BME280;14133;48.430;9.888;2022-07-03T22:43:06;95260.25;;;20.97;60.25
26438;BME280;14133;48.430;9.888;2022-07-03T22:52:46;95245.53;;;20.95;59.12
26438;BME280;14133;48.430;9.888;2022-07-03T23:02:27;95262.19;;;20.97;60.93
26438;BME280;14133;48.430;9.888;2022-07-03T23:12:07;95296.25;;;21.02;59.23
26438;BME280;14133;48.430;9.888;2022-07-03T23:21:52;95296.25;;;21.02;60.48
26438;BME280;14133;48.430;9.888;2022-07-03T23:31:33;95257.91;;;20.60;63.22
26438;BME280;14133;48.430;9.888;2022-07-03T23:41:13;95288.91;;;20.88;61.00
26438;BME280;14133;48.430;9.888;2022-07-03T23:50:53;95303.97;;;20.60;63.55
